sensor_id;sensor_type;location;lat;lon;timestamp;temperature;humidity
30250;DHT22;17064;47.974;13.826;2022-12-16T00:03:58;-0.60;99.90
30250;DHT22;17064;47.974;13.826;2022-12-16T00:09:00;-0.60;99.90
30250;DHT22;17064;47.974;13.826;2022-12-16T00:14:01;-0.60;99.90
30250;DHT22;17064;47.974;13.826;2022-12-16T00:19:01;-0.60;99.90
30250;DHT22;17064;47.974;13.826;2022-12-16T00:24:02;-0.70;99.90
30250;DHT22;17064;47.974;13.826;2022-12-16T00:29:03;-0.60;99.90
30250;DHT22;17064;47.974;13.826;2022-12-16T00:34:07;-0.70;99.90
30250;DHT22;17064;47.974;13.826;2022-12-16T00:39:07;-0.70;99.90
30250;DHT22;17064;47.974;13.826;2022-12-16T00:44:08;-0.70;99.90
30250;DHT22;17064;47.974;13.826;2022-12-16T00:49:09;-0.70;99.90
30250;DHT22;17064;47.974;13.826;2022-12-16T00:54:09;-0.70;99.90
30250;DHT22;17064;47.974;13.826;2022-12-16T00:59:10;-0.70;99.90
30250;DHT22;17064;47.974;13.826;2022-12-16T01:04:11;-0.70;99.90
30250;DHT22;17064;47.974;13.826;2022-12-16T01:09:11;-0.70;99.90
30250;DHT22;17064;47.974;13.826;2022-12-16T01:14:12;-0.70;99.90
30250;DHT22;17064;47.974;13.826;2022-12-16T01:19:13;-0.70;99.90
30250;DHT22;17064;47.974;13.826;2022-12-16T01:24:13;-0.70;99.90
30250;DHT22;17064;47.974;13.826;2022-12-16T01:29:14;-0.70;99.90
30250;DHT22;17064;47.974;13.826;2022-12-16T01:34:15;-0.70;99.90
30250;DHT22;17064;47.974;13.826;2022-12-16T01:39:16;-0.70;99.90
30250;DHT22;17064;47.974;13.826;2022-12-16T01:44:20;-0.70;99.90
30250;DHT22;17064;47.974;13.826;2022-12-16T01:49:41;-0.70;99.90
30250;DHT22;17064;47.974;13.826;2022-12-16T01:54:54;-0.70;99.90
30250;DHT22;17064;47.974;13.826;2022-12-16T01:59:56;-0.70;99.90
30250;DHT22;17064;47.974;13.826;2022-12-16T02:04:57;-0.70;99.90
30250;DHT22;17064;47.974;13.826;2022-12-16T02:10:16;-0.80;99.90
30250;DHT22;17064;47.974;13.826;2022-12-16T02:26:15;-0.80;99.90
30250;DHT22;17064;47.974;13.826;2022-12-16T02:36:50;-0.80;99.90
30250;DHT22;17064;47.974;13.826;2022-12-16T02:42:15;-0.80;99.90
30250;DHT22;17064;47.974;13.826;2022-12-16T02:47:18;-0.80;99.90
30250;DHT22;17064;47.974;13.826;2022-12-16T02:52:22;-0.80;99.90
30250;DHT22;17064;47.974;13.826;2022-12-16T03:07:58;-0.80;99.90
30250;DHT22;17064;47.974;13.826;2022-12-16T03:13:01;-0.80;99.90
30250;DHT22;17064;47.974;13.826;2022-12-16T03:18:04;-0.80;99.90
30250;DHT22;17064;47.974;13.826;2022-12-16T03:23:12;-0.80;99.90
30250;DHT22;17064;47.974;13.826;2022-12-16T03:28:41;-0.70;99.90
30250;DHT22;17064;47.974;13.826;2022-12-16T03:39:11;-0.70;99.90
30250;DHT22;17064;47.974;13.826;2022-12-16T03:44:12;-0.70;99.90
30250;DHT22;17064;47.974;13.826;2022-12-16T03:49:13;-0.80;99.90
30250;DHT22;17064;47.974;13.826;2022-12-16T03:54:13;-0.70;99.90
30250;DHT22;17064;47.974;13.826;2022-12-16T03:59:14;-0.70;99.90
30250;DHT22;17064;47.974;13.826;2022-12-16T04:04:15;-0.70;99.90
30250;DHT22;17064;47.974;13.826;2022-12-16T04:09:16;-0.70;99.90
30250;DHT22;17064;47.974;13.826;2022-12-16T04:14:17;-0.70;99.90
30250;DHT22;17064;47.974;13.826;2022-12-16T04:19:37;-0.70;99.90
30250;DHT22;17064;47.974;13.826;2022-12-16T04:25:00;-0.70;99.90
30250;DHT22;17064;47.974;13.826;2022-12-16T04:30:02;-0.70;99.90
30250;DHT22;17064;47.974;13.826;2022-12-16T04:35:18;-0.70;99.90
30250;DHT22;17064;47.974;13.826;2022-12-16T04:40:37;-0.70;99.90
30250;DHT22;17064;47.974;13.826;2022-12-16T04:45:57;-0.70;99.90
30250;DHT22;17064;47.974;13.826;2022-12-16T04:51:16;-0.60;99.90
30250;DHT22;17064;47.974;13.826;2022-12-16T04:56:35;-0.60;99.90
30250;DHT22;17064;47.974;13.826;2022-12-16T05:01:54;-0.60;99.90
30250;DHT22;17064;47.974;13.826;2022-12-16T05:07:14;-0.60;99.90
30250;DHT22;17064;47.974;13.826;2022-12-16T05:12:33;-0.60;99.90
30250;DHT22;17064;47.974;13.826;2022-12-16T05:17:52;-0.60;99.90
30250;DHT22;17064;47.974;13.826;2022-12-16T05:23:12;-0.50;99.90
30250;DHT22;17064;47.974;13.826;2022-12-16T05:28:31;-0.50;99.90
30250;DHT22;17064;47.974;13.826;2022-12-16T05:33:50;-0.50;99.90
30250;DHT22;17064;47.974;13.826;2022-12-16T05:39:10;-0.50;99.90
30250;DHT22;17064;47.974;13.826;2022-12-16T05:44:29;-0.50;99.90
30250;DHT22;17064;47.974;13.826;2022-12-16T05:49:48;-0.50;99.90
30250;DHT22;17064;47.974;13.826;2022-12-16T05:55:08;-0.50;99.90
30250;DHT22;17064;47.974;13.826;2022-12-16T06:00:27;-0.50;99.90
30250;DHT22;17064;47.974;13.826;2022-12-16T06:05:46;-0.50;99.90
30250;DHT22;17064;47.974;13.826;2022-12-16T06:11:05;-0.50;99.90
30250;DHT22;17064;47.974;13.826;2022-12-16T06:16:24;-0.50;99.90
30250;DHT22;17064;47.974;13.826;2022-12-16T06:21:43;-0.50;99.90
30250;DHT22;17064;47.974;13.826;2022-12-16T06:27:02;-0.60;99.90
30250;DHT22;17064;47.974;13.826;2022-12-16T06:32:22;-0.50;99.90
30250;DHT22;17064;47.974;13.826;2022-12-16T06:37:41;-0.60;99.90
30250;DHT22;17064;47.974;13.826;2022-12-16T06:43:00;-0.50;99.90
30250;DHT22;17064;47.974;13.826;2022-12-16T06:48:19;-0.50;99.90
30250;DHT22;17064;47.974;13.826;2022-12-16T06:53:38;-0.50;99.90
30250;DHT22;17064;47.974;13.826;2022-12-16T06:58:57;-0.50;99.90
30250;DHT22;17064;47.974;13.826;2022-12-16T07:04:16;-0.50;99.90
30250;DHT22;17064;47.974;13.826;2022-12-16T07:09:36;-0.50;99.90
30250;DHT22;17064;47.974;13.826;2022-12-16T07:14:55;-0.40;99.90
30250;DHT22;17064;47.974;13.826;2022-12-16T07:20:14;-0.40;99.90
30250;DHT22;17064;47.974;13.826;2022-12-16T07:25:34;-0.40;99.90
30250;DHT22;17064;47.974;13.826;2022-12-16T07:30:53;-0.40;99.90
30250;DHT22;17064;47.974;13.826;2022-12-16T07:36:12;-0.40;99.90
30250;DHT22;17064;47.974;13.826;2022-12-16T07:41:32;-0.40;99.90
30250;DHT22;17064;47.974;13.826;2022-12-16T07:46:51;-0.40;99.90
30250;DHT22;17064;47.974;13.826;2022-12-16T07:52:10;-0.30;99.90
30250;DHT22;17064;47.974;13.826;2022-12-16T07:57:29;-0.30;99.90
30250;DHT22;17064;47.974;13.826;2022-12-16T08:02:55;-0.30;99.90
30250;DHT22;17064;47.974;13.826;2022-12-16T08:08:14;-0.30;99.90
30250;DHT22;17064;47.974;13.826;2022-12-16T08:13:33;-0.20;99.90
30250;DHT22;17064;47.974;13.826;2022-12-16T08:18:52;-0.10;99.90
30250;DHT22;17064;47.974;13.826;2022-12-16T08:24:12;-0.10;99.90
30250;DHT22;17064;47.974;13.826;2022-12-16T08:29:31;-0.10;99.90
30250;DHT22;17064;47.974;13.826;2022-12-16T08:34:50;0.00;99.90
30250;DHT22;17064;47.974;13.826;2022-12-16T08:40:10;0.00;99.90
30250;DHT22;17064;47.974;13.826;2022-12-16T08:45:29;0.10;99.90
30250;DHT22;17064;47.974;13.826;2022-12-16T08:50:48;0.20;99.90
30250;DHT22;17064;47.974;13.826;2022-12-16T08:56:07;0.30;99.90
30250;DHT22;17064;47.974;13.826;2022-12-16T09:01:26;0.30;99.90
30250;DHT22;17064;47.974;13.826;2022-12-16T09:06:46;0.30;99.90
30250;DHT22;17064;47.974;13.826;2022-12-16T09:12:05;0.30;99.90
30250;DHT22;17064;47.974;13.826;2022-12-16T09:17:25;0.40;99.90
30250;DHT22;17064;47.974;13.826;2022-12-16T09:22:44;0.40;99.90
30250;DHT22;17064;47.974;13.826;2022-12-16T09:28:03;0.40;99.90
30250;DHT22;17064;47.974;13.826;2022-12-16T09:33:22;0.50;99.90
30250;DHT22;17064;47.974;13.826;2022-12-16T09:38:41;0.70;99.90
30250;DHT22;17064;47.974;13.826;2022-12-16T09:49:47;0.80;99.90
30250;DHT22;17064;47.974;13.826;2022-12-16T09:55:20;0.80;99.90
30250;DHT22;17064;47.974;13.826;2022-12-16T10:00:40;0.80;99.90
30250;DHT22;17064;47.974;13.826;2022-12-16T10:11:59;0.90;99.90
30250;DHT22;17064;47.974;13.826;2022-12-16T10:17:22;0.90;99.90
30250;DHT22;17064;47.974;13.826;2022-12-16T10:28:17;1.10;99.90
30250;DHT22;17064;47.974;13.826;2022-12-16T10:33:36;1.20;99.90
30250;DHT22;17064;47.974;13.826;2022-12-16T10:39:00;1.20;99.90
30250;DHT22;17064;47.974;13.826;2022-12-16T10:50:14;1.30;99.90
30250;DHT22;17064;47.974;13.826;2022-12-16T10:55:36;1.30;99.90
30250;DHT22;17064;47.974;13.826;2022-12-16T11:01:00;1.40;99.90
30250;DHT22;17064;47.974;13.826;2022-12-16T11:06:54;1.40;99.90
30250;DHT22;17064;47.974;13.826;2022-12-16T11:12:27;1.40;99.90
30250;DHT22;17064;47.974;13.826;2022-12-16T11:18:02;1.30;99.90
30250;DHT22;17064;47.974;13.826;2022-12-16T11:23:23;1.30;99.90
30250;DHT22;17064;47.974;13.826;2022-12-16T11:28:43;1.30;99.90
30250;DHT22;17064;47.974;13.826;2022-12-16T11:34:03;1.20;99.90
30250;DHT22;17064;47.974;13.826;2022-12-16T11:39:25;1.20;99.90
30250;DHT22;17064;47.974;13.826;2022-12-16T11:44:54;1.20;99.90
30250;DHT22;17064;47.974;13.826;2022-12-16T11:50:17;1.20;99.90
30250;DHT22;17064;47.974;13.826;2022-12-16T11:55:40;1.20;99.90
30250;DHT22;17064;47.974;13.826;2022-12-16T12:01:30;1.20;99.90
30250;DHT22;17064;47.974;13.826;2022-12-16T12:06:57;1.20;99.90
30250;DHT22;17064;47.974;13.826;2022-12-16T12:12:33;1.10;99.90
30250;DHT22;17064;47.974;13.826;2022-12-16T12:18:07;1.10;99.90
30250;DHT22;17064;47.974;13.826;2022-12-16T12:23:48;1.20;99.90
30250;DHT22;17064;47.974;13.826;2022-12-16T12:34:53;1.30;99.90
30250;DHT22;17064;47.974;13.826;2022-12-16T12:46:15;1.40;99.90
30250;DHT22;17064;47.974;13.826;2022-12-16T12:51:38;1.40;99.90
30250;DHT22;17064;47.974;13.826;2022-12-16T12:57:01;1.40;99.90
30250;DHT22;17064;47.974;13.826;2022-12-16T13:02:23;1.30;99.90
30250;DHT22;17064;47.974;13.826;2022-12-16T13:07:45;1.30;99.90
30250;DHT22;17064;47.974;13.826;2022-12-16T13:18:33;1.30;99.90
30250;DHT22;17064;47.974;13.826;2022-12-16T13:23:52;1.20;99.90
30250;DHT22;17064;47.974;13.826;2022-12-16T13:29:30;1.20;99.90
30250;DHT22;17064;47.974;13.826;2022-12-16T13:35:04;1.30;99.90
30250;DHT22;17064;47.974;13.826;2022-12-16T13:40:23;1.30;99.90
30250;DHT22;17064;47.974;13.826;2022-12-16T13:56:59;1.10;99.90
30250;DHT22;17064;47.974;13.826;2022-12-16T14:02:35;1.00;99.90
30250;DHT22;17064;47.974;13.826;2022-12-16T14:07:57;0.90;99.90
30250;DHT22;17064;47.974;13.826;2022-12-16T14:13:17;0.80;99.90
30250;DHT22;17064;47.974;13.826;2022-12-16T14:18:51;0.80;99.90
30250;DHT22;17064;47.974;13.826;2022-12-16T14:24:23;0.80;99.90
30250;DHT22;17064;47.974;13.826;2022-12-16T14:29:44;0.80;99.90
30250;DHT22;17064;47.974;13.826;2022-12-16T14:35:09;0.70;99.90
30250;DHT22;17064;47.974;13.826;2022-12-16T14:40:32;0.70;99.90
30250;DHT22;17064;47.974;13.826;2022-12-16T14:45:52;0.70;99.90
30250;DHT22;17064;47.974;13.826;2022-12-16T14:56:46;0.60;99.90
30250;DHT22;17064;47.974;13.826;2022-12-16T15:02:29;0.50;99.90
30250;DHT22;17064;47.974;13.826;2022-12-16T15:07:49;0.50;99.90
30250;DHT22;17064;47.974;13.826;2022-12-16T15:13:17;0.50;99.90
30250;DHT22;17064;47.974;13.826;2022-12-16T15:18:42;0.40;99.90
30250;DHT22;17064;47.974;13.826;2022-12-16T15:24:07;0.40;99.90
30250;DHT22;17064;47.974;13.826;2022-12-16T15:29:35;0.40;99.90
30250;DHT22;17064;47.974;13.826;2022-12-16T15:34:54;0.40;99.90
30250;DHT22;17064;47.974;13.826;2022-12-16T15:40:33;0.40;99.90
30250;DHT22;17064;47.974;13.826;2022-12-16T15:45:55;0.30;99.90
30250;DHT22;17064;47.974;13.826;2022-12-16T15:51:30;0.30;99.90
30250;DHT22;17064;47.974;13.826;2022-12-16T15:56:50;0.20;99.90
30250;DHT22;17064;47.974;13.826;2022-12-16T16:02:21;0.10;99.90
30250;DHT22;17064;47.974;13.826;2022-12-16T16:07:41;0.10;99.90
30250;DHT22;17064;47.974;13.826;2022-12-16T16:13:00;0.00;99.90
30250;DHT22;17064;47.974;13.826;2022-12-16T16:18:20;-0.10;99.90
30250;DHT22;17064;47.974;13.826;2022-12-16T16:23:39;-0.10;99.90
30250;DHT22;17064;47.974;13.826;2022-12-16T16:28:59;-0.20;99.90
30250;DHT22;17064;47.974;13.826;2022-12-16T16:34:18;-0.20;99.90
30250;DHT22;17064;47.974;13.826;2022-12-16T16:39:51;-0.20;99.90
30250;DHT22;17064;47.974;13.826;2022-12-16T16:45:11;-0.30;99.90
30250;DHT22;17064;47.974;13.826;2022-12-16T16:50:30;-0.30;99.90
30250;DHT22;17064;47.974;13.826;2022-12-16T16:55:52;-0.30;99.90
30250;DHT22;17064;47.974;13.826;2022-12-16T17:01:14;-0.30;99.90
30250;DHT22;17064;47.974;13.826;2022-12-16T17:06:33;-0.30;99.90
30250;DHT22;17064;47.974;13.826;2022-12-16T17:11:53;-0.30;99.90
30250;DHT22;17064;47.974;13.826;2022-12-16T17:17:12;-0.40;99.90
30250;DHT22;17064;47.974;13.826;2022-12-16T17:22:32;-0.40;99.90
30250;DHT22;17064;47.974;13.826;2022-12-16T17:27:51;-0.40;99.90
30250;DHT22;17064;47.974;13.826;2022-12-16T17:33:11;-0.40;99.90
30250;DHT22;17064;47.974;13.826;2022-12-16T17:38:30;-0.40;99.90
30250;DHT22;17064;47.974;13.826;2022-12-16T17:43:52;-0.40;99.90
30250;DHT22;17064;47.974;13.826;2022-12-16T17:49:11;-0.40;99.90
30250;DHT22;17064;47.974;13.826;2022-12-16T17:54:30;-0.50;99.90
30250;DHT22;17064;47.974;13.826;2022-12-16T17:59:50;-0.50;99.90
30250;DHT22;17064;47.974;13.826;2022-12-16T18:05:09;-0.60;99.90
30250;DHT22;17064;47.974;13.826;2022-12-16T18:10:28;-0.60;99.90
30250;DHT22;17064;47.974;13.826;2022-12-16T18:15:51;-0.70;99.90
30250;DHT22;17064;47.974;13.826;2022-12-16T18:21:11;-0.80;99.90
30250;DHT22;17064;47.974;13.826;2022-12-16T18:26:31;-0.80;99.90
30250;DHT22;17064;47.974;13.826;2022-12-16T18:31:50;-0.80;99.90
30250;DHT22;17064;47.974;13.826;2022-12-16T18:37:12;-0.90;99.90
30250;DHT22;17064;47.974;13.826;2022-12-16T18:42:31;-0.90;99.90
30250;DHT22;17064;47.974;13.826;2022-12-16T18:47:51;-0.90;99.90
30250;DHT22;17064;47.974;13.826;2022-12-16T18:53:10;-0.90;99.90
30250;DHT22;17064;47.974;13.826;2022-12-16T18:58:30;-1.00;99.90
30250;DHT22;17064;47.974;13.826;2022-12-16T19:03:50;-1.00;99.90
30250;DHT22;17064;47.974;13.826;2022-12-16T19:09:09;-1.10;99.90
30250;DHT22;17064;47.974;13.826;2022-12-16T19:14:29;-1.10;99.90
30250;DHT22;17064;47.974;13.826;2022-12-16T19:19:48;-1.10;99.90
30250;DHT22;17064;47.974;13.826;2022-12-16T19:25:08;-1.10;99.90
30250;DHT22;17064;47.974;13.826;2022-12-16T19:30:27;-1.20;99.90
30250;DHT22;17064;47.974;13.826;2022-12-16T19:35:47;-1.10;99.90
30250;DHT22;17064;47.974;13.826;2022-12-16T19:41:13;-1.20;99.90
30250;DHT22;17064;47.974;13.826;2022-12-16T19:46:33;-1.20;99.90
30250;DHT22;17064;47.974;13.826;2022-12-16T19:51:52;-1.20;99.90
30250;DHT22;17064;47.974;13.826;2022-12-16T19:57:11;-1.30;99.90
30250;DHT22;17064;47.974;13.826;2022-12-16T20:02:31;-1.30;99.90
30250;DHT22;17064;47.974;13.826;2022-12-16T20:07:50;-1.30;99.90
30250;DHT22;17064;47.974;13.826;2022-12-16T20:13:10;-1.30;99.90
30250;DHT22;17064;47.974;13.826;2022-12-16T20:18:30;-1.30;99.90
30250;DHT22;17064;47.974;13.826;2022-12-16T20:23:49;-1.30;99.90
30250;DHT22;17064;47.974;13.826;2022-12-16T20:29:09;-1.30;99.90
30250;DHT22;17064;47.974;13.826;2022-12-16T20:34:28;-1.40;99.90
30250;DHT22;17064;47.974;13.826;2022-12-16T20:39:48;-1.40;99.90
30250;DHT22;17064;47.974;13.826;2022-12-16T20:45:07;-1.40;99.90
30250;DHT22;17064;47.974;13.826;2022-12-16T20:50:27;-1.40;99.90
30250;DHT22;17064;47.974;13.826;2022-12-16T20:55:46;-1.40;99.90
30250;DHT22;17064;47.974;13.826;2022-12-16T21:01:06;-1.40;99.90
30250;DHT22;17064;47.974;13.826;2022-12-16T21:06:25;-1.40;99.90
30250;DHT22;17064;47.974;13.826;2022-12-16T21:11:45;-1.50;99.90
30250;DHT22;17064;47.974;13.826;2022-12-16T21:17:21;-1.50;99.90
30250;DHT22;17064;47.974;13.826;2022-12-16T21:22:40;-1.50;99.90
30250;DHT22;17064;47.974;13.826;2022-12-16T21:28:00;-1.50;99.90
30250;DHT22;17064;47.974;13.826;2022-12-16T21:33:19;-1.50;99.90
30250;DHT22;17064;47.974;13.826;2022-12-16T21:38:39;-1.50;99.90
30250;DHT22;17064;47.974;13.826;2022-12-16T21:43:58;-1.50;99.90
30250;DHT22;17064;47.974;13.826;2022-12-16T21:49:17;-1.50;99.90
30250;DHT22;17064;47.974;13.826;2022-12-16T21:54:36;-1.50;99.90
30250;DHT22;17064;47.974;13.826;2022-12-16T21:59:56;-1.50;99.90
30250;DHT22;17064;47.974;13.826;2022-12-16T22:05:15;-1.50;99.90
30250;DHT22;17064;47.974;13.826;2022-12-16T22:10:34;-1.50;99.90
30250;DHT22;17064;47.974;13.826;2022-12-16T22:15:58;-1.50;99.90
30250;DHT22;17064;47.974;13.826;2022-12-16T22:21:17;-1.50;99.90
30250;DHT22;17064;47.974;13.826;2022-12-16T22:26:36;-1.50;99.90
30250;DHT22;17064;47.974;13.826;2022-12-16T22:31:56;-1.50;99.90
30250;DHT22;17064;47.974;13.826;2022-12-16T22:37:16;-1.50;99.90
30250;DHT22;17064;47.974;13.826;2022-12-16T22:42:35;-1.50;99.90
30250;DHT22;17064;47.974;13.826;2022-12-16T22:47:55;-1.60;99.90
30250;DHT22;17064;47.974;13.826;2022-12-16T22:53:14;-1.50;99.90
30250;DHT22;17064;47.974;13.826;2022-12-16T22:58:33;-1.50;99.90
30250;DHT22;17064;47.974;13.826;2022-12-16T23:03:53;-1.50;99.90
30250;DHT22;17064;47.974;13.826;2022-12-16T23:09:12;-1.50;99.90
30250;DHT22;17064;47.974;13.826;2022-12-16T23:14:31;-1.50;99.90
30250;DHT22;17064;47.974;13.826;2022-12-16T23:19:50;-1.50;99.90
30250;DHT22;17064;47.974;13.826;2022-12-16T23:25:10;-1.50;99.90
30250;DHT22;17064;47.974;13.826;2022-12-16T23:30:29;-1.50;99.90
30250;DHT22;17064;47.974;13.826;2022-12-16T23:35:48;-1.50;99.90
30250;DHT22;17064;47.974;13.826;2022-12-16T23:41:08;-1.50;99.90
30250;DHT22;17064;47.974;13.826;2022-12-16T23:46:27;-1.50;99.90
30250;DHT22;17064;47.974;13.826;2022-12-16T23:51:46;-1.50;99.90
30250;DHT22;17064;47.974;13.826;2022-12-16T23:57:06;-1.50;99.90
